createdAt,value
2016-12-26T00:00:02.095Z,18.2
2016-12-26T00:00:42.621Z,18.25
2016-12-26T00:01:23.179Z,18.19
2016-12-26T00:02:03.712Z,18.16
2016-12-26T00:02:44.226Z,18.2
2016-12-26T00:03:24.759Z,18.11
2016-12-26T00:04:05.286Z,18.01
2016-12-26T00:04:45.820Z,18.01
2016-12-26T00:05:26.355Z,18.03
2016-12-26T00:06:06.891Z,18.07
2016-12-26T00:06:47.426Z,18.2
2016-12-26T00:07:27.955Z,18.11
2016-12-26T00:08:08.494Z,18.04
2016-12-26T00:08:49.080Z,18.05
2016-12-26T00:09:29.616Z,18.2
2016-12-26T00:10:10.155Z,18.15
2016-12-26T00:10:50.671Z,18.1
2016-12-26T00:11:31.211Z,18.19
2016-12-26T00:12:11.732Z,18.22
2016-12-26T00:12:52.268Z,18.16
2016-12-26T00:13:32.808Z,18.2
2016-12-26T00:14:13.348Z,18.28
2016-12-26T00:14:53.874Z,18.11
2016-12-26T00:15:34.533Z,18.16
2016-12-26T00:16:15.287Z,18.16
2016-12-26T00:16:55.814Z,18.2
2016-12-26T00:17:36.363Z,18.16
2016-12-26T00:18:16.895Z,18.25
2016-12-26T00:18:57.465Z,18.03
2016-12-26T00:19:37.997Z,18.16
2016-12-26T00:20:18.526Z,18.15
2016-12-26T00:20:59.095Z,18.05
2016-12-26T00:21:39.631Z,18.19
2016-12-26T00:22:20.172Z,18.2
2016-12-26T00:23:00.762Z,18.16
2016-12-26T00:23:41.340Z,18.05
2016-12-26T00:24:21.871Z,18.16
2016-12-26T00:25:02.379Z,18.25
2016-12-26T00:25:42.908Z,18.13
2016-12-26T00:26:23.444Z,18.13
2016-12-26T00:27:03.980Z,18.15
2016-12-26T00:27:44.521Z,18.15
2016-12-26T00:28:25.044Z,18.16
2016-12-26T00:29:05.572Z,18.1
2016-12-26T00:29:46.105Z,18.07
2016-12-26T00:30:26.646Z,18.2
2016-12-26T00:31:07.181Z,18.19
2016-12-26T00:31:47.712Z,18.23
2016-12-26T00:32:28.284Z,18.31
2016-12-26T00:33:08.800Z,18.31
2016-12-26T00:33:49.330Z,18.33
2016-12-26T00:34:29.859Z,18.25
2016-12-26T00:35:10.382Z,18.28
2016-12-26T00:35:50.909Z,18.25
2016-12-26T00:36:31.429Z,18.28
2016-12-26T00:37:11.953Z,18.28
2016-12-26T00:37:52.496Z,18.25
2016-12-26T00:38:33.030Z,18.31
2016-12-26T00:39:13.558Z,18.25
2016-12-26T00:39:54.081Z,18.16
2016-12-26T00:40:34.609Z,18.13
2016-12-26T00:41:15.158Z,18.16
2016-12-26T00:41:55.756Z,18.18
2016-12-26T00:42:36.285Z,18.2
2016-12-26T00:43:16.927Z,18.2
2016-12-26T00:43:57.431Z,18.31
2016-12-26T00:44:37.957Z,18.15
2016-12-26T00:45:18.529Z,18.26
2016-12-26T00:45:59.042Z,18.25
2016-12-26T00:46:39.622Z,18.26
2016-12-26T00:47:20.145Z,18.26
2016-12-26T00:48:00.698Z,18.23
2016-12-26T00:48:41.209Z,18.25
2016-12-26T00:49:21.750Z,18.25
2016-12-26T00:50:02.309Z,18.22
2016-12-26T00:50:42.836Z,18.23
2016-12-26T00:51:23.353Z,18.2
2016-12-26T00:52:03.886Z,18.16
2016-12-26T00:52:44.531Z,18.16
2016-12-26T00:53:25.137Z,18.18
2016-12-26T00:54:05.678Z,18.29
2016-12-26T00:54:46.207Z,18.25
2016-12-26T00:55:26.759Z,18.26
2016-12-26T00:56:07.269Z,18.28
2016-12-26T00:56:47.815Z,18.23
2016-12-26T00:57:28.342Z,18.28
2016-12-26T00:58:08.875Z,18.22
2016-12-26T00:58:49.408Z,18.22
2016-12-26T00:59:29.932Z,18.28
2016-12-26T01:00:10.467Z,18.26
2016-12-26T01:00:51.006Z,18.15
2016-12-26T01:01:31.544Z,18.16
2016-12-26T01:02:12.088Z,18.19
2016-12-26T01:02:52.631Z,18.26
2016-12-26T01:03:33.157Z,18.2
2016-12-26T01:04:13.699Z,18.25
2016-12-26T01:04:54.240Z,18.22
2016-12-26T01:05:34.768Z,18.25
2016-12-26T01:06:15.296Z,18.31
2016-12-26T01:06:55.827Z,18.11
2016-12-26T01:07:36.345Z,18.23
2016-12-26T01:08:16.872Z,18.26
2016-12-26T01:08:57.421Z,18.19
2016-12-26T01:09:37.948Z,18.28
2016-12-26T01:10:18.486Z,18.19
2016-12-26T01:10:59.009Z,18.16
2016-12-26T01:11:39.542Z,18.16
2016-12-26T01:12:20.065Z,18.28
2016-12-26T01:13:00.595Z,18.23
2016-12-26T01:13:41.122Z,18.28
2016-12-26T01:14:21.664Z,18.29
2016-12-26T01:15:02.194Z,18.16
2016-12-26T01:15:42.715Z,18.1
2016-12-26T01:16:23.249Z,18.16
2016-12-26T01:17:03.777Z,18.22
2016-12-26T01:17:44.298Z,18.18
2016-12-26T01:18:24.831Z,18.18
2016-12-26T01:19:05.356Z,18
2016-12-26T01:19:45.872Z,18.01
2016-12-26T01:20:26.399Z,18
2016-12-26T01:21:06.919Z,18.13
2016-12-26T01:21:47.440Z,18.08
2016-12-26T01:22:27.963Z,18.13
2016-12-26T01:23:08.503Z,18.13
2016-12-26T01:23:49.023Z,18.11
2016-12-26T01:24:29.553Z,18.16
2016-12-26T01:25:10.093Z,18.26
2016-12-26T01:25:50.617Z,18.19
2016-12-26T01:26:31.145Z,18.2
2016-12-26T01:27:11.672Z,18.2
2016-12-26T01:27:52.208Z,18.19
2016-12-26T01:28:32.742Z,18.19
2016-12-26T01:29:13.276Z,18.11
2016-12-26T01:29:53.811Z,18.2
2016-12-26T01:30:34.339Z,18.33
2016-12-26T01:31:14.876Z,18.15
2016-12-26T01:31:55.398Z,18.25
2016-12-26T01:32:35.947Z,18.13
2016-12-26T01:33:16.466Z,18.23
2016-12-26T01:33:57.001Z,18.26
2016-12-26T01:34:37.528Z,18.23
2016-12-26T01:35:18.068Z,18.26
2016-12-26T01:35:58.606Z,18.23
2016-12-26T01:36:39.122Z,18.23
2016-12-26T01:37:19.671Z,18.23
2016-12-26T01:38:00.207Z,18.26
2016-12-26T01:38:40.739Z,18.23
2016-12-26T01:39:21.257Z,18.25
2016-12-26T01:40:01.792Z,18.25
2016-12-26T01:40:42.317Z,18.28
2016-12-26T01:41:22.847Z,18.26
2016-12-26T01:42:03.380Z,18.23
2016-12-26T01:42:43.908Z,18.2
2016-12-26T01:43:24.437Z,18.26
2016-12-26T01:44:04.965Z,18.26
2016-12-26T01:44:45.500Z,18.23
2016-12-26T01:45:26.032Z,18.31
2016-12-26T01:46:06.565Z,18.13
2016-12-26T01:46:47.095Z,18.16
2016-12-26T01:47:27.616Z,18.13
2016-12-26T01:48:08.140Z,18.15
2016-12-26T01:48:48.671Z,18.2
2016-12-26T01:49:29.185Z,18.11
2016-12-26T01:50:09.719Z,18.11
2016-12-26T01:50:50.245Z,18.19
2016-12-26T01:51:30.778Z,18.28
2016-12-26T01:52:11.311Z,18.25
2016-12-26T01:52:51.829Z,18.23
2016-12-26T01:53:32.365Z,18.22
2016-12-26T01:54:12.887Z,18.18
2016-12-26T01:54:53.418Z,18.18
2016-12-26T01:55:33.952Z,18.28
2016-12-26T01:56:14.489Z,18.26
2016-12-26T01:56:55.006Z,18.2
2016-12-26T01:57:35.539Z,18.16
2016-12-26T01:58:16.064Z,18.15
2016-12-26T01:58:56.586Z,18.22
2016-12-26T01:59:37.112Z,18.19
2016-12-26T02:00:17.642Z,18.28
2016-12-26T02:00:58.183Z,18.29
2016-12-26T02:01:38.714Z,18.28
2016-12-26T02:02:19.251Z,18.19
2016-12-26T02:02:59.786Z,18.19
2016-12-26T02:03:40.306Z,18.26
2016-12-26T02:04:20.835Z,18.15
2016-12-26T02:05:01.371Z,18.18
2016-12-26T02:05:41.895Z,18.26
2016-12-26T02:06:22.419Z,18.26
2016-12-26T02:07:02.945Z,18.29
2016-12-26T02:07:43.476Z,18.22
2016-12-26T02:08:24.001Z,18.19
2016-12-26T02:09:04.544Z,18.19
2016-12-26T02:09:45.057Z,18.15
2016-12-26T02:10:25.586Z,18.25
2016-12-26T02:11:06.117Z,18.28
2016-12-26T02:11:46.657Z,18.2
2016-12-26T02:12:27.165Z,18.25
2016-12-26T02:13:07.677Z,18.19
2016-12-26T02:13:48.201Z,18.15
2016-12-26T02:14:28.735Z,18.23
2016-12-26T02:15:09.262Z,18.31
2016-12-26T02:15:49.797Z,18.23
2016-12-26T02:16:30.321Z,18.26
2016-12-26T02:17:10.844Z,18.29
2016-12-26T02:17:51.375Z,18.26
2016-12-26T02:18:31.895Z,18.29
2016-12-26T02:19:12.422Z,18.28
2016-12-26T02:19:52.954Z,18.2
2016-12-26T02:20:33.484Z,18.25
2016-12-26T02:21:14.011Z,18.26
2016-12-26T02:21:54.544Z,18.28
2016-12-26T02:22:35.061Z,18.25
2016-12-26T02:23:15.602Z,18.25
2016-12-26T02:23:56.136Z,18.2
2016-12-26T02:24:36.661Z,18.2
2016-12-26T02:25:17.168Z,18.23
2016-12-26T02:25:57.691Z,18.26
2016-12-26T02:26:38.230Z,18.22
2016-12-26T02:27:18.761Z,18.35
2016-12-26T02:27:59.303Z,18.26
2016-12-26T02:28:39.829Z,18.23
2016-12-26T02:29:20.364Z,18.2
2016-12-26T02:30:00.893Z,18.29
2016-12-26T02:30:41.422Z,18.23
2016-12-26T02:31:21.964Z,18.2
2016-12-26T02:32:02.494Z,18.26
2016-12-26T02:32:43.047Z,18.25
2016-12-26T02:33:23.570Z,18.25
2016-12-26T02:34:04.106Z,18.16
2016-12-26T02:34:44.635Z,18.19
2016-12-26T02:35:25.171Z,18.26
2016-12-26T02:36:05.704Z,18.26
2016-12-26T02:36:46.244Z,18.26
2016-12-26T02:37:26.767Z,18.28
2016-12-26T02:38:07.305Z,18.2
2016-12-26T02:38:47.833Z,18.26
2016-12-26T02:39:28.360Z,18.28
2016-12-26T02:40:08.895Z,18.25
2016-12-26T02:40:49.432Z,18.2
2016-12-26T02:41:29.955Z,18.35
2016-12-26T02:42:10.479Z,18.29
2016-12-26T02:42:51.010Z,18.26
2016-12-26T02:43:31.529Z,18.26
2016-12-26T02:44:12.063Z,18.25
2016-12-26T02:44:52.583Z,18.28
2016-12-26T02:45:33.108Z,18.25
2016-12-26T02:46:13.638Z,18.25
2016-12-26T02:46:54.164Z,18.26
2016-12-26T02:47:34.692Z,18.19
2016-12-26T02:48:15.235Z,18.26
2016-12-26T02:48:55.773Z,18.22
2016-12-26T02:49:36.305Z,18.23
2016-12-26T02:50:16.834Z,18.23
2016-12-26T02:50:57.364Z,18.19
2016-12-26T02:51:37.895Z,18.15
2016-12-26T02:52:18.419Z,18.16
2016-12-26T02:52:58.952Z,18.33
2016-12-26T02:53:39.476Z,18.13
2016-12-26T02:54:19.995Z,18.16
2016-12-26T02:55:00.521Z,18.15
2016-12-26T02:55:41.052Z,18.19
2016-12-26T02:56:21.594Z,18.22
2016-12-26T02:57:02.120Z,18.15
2016-12-26T02:57:42.650Z,18.26
2016-12-26T02:58:23.176Z,18.18
2016-12-26T02:59:03.696Z,18.19
2016-12-26T02:59:44.233Z,18.15
2016-12-26T03:00:24.759Z,18.13
2016-12-26T03:01:05.288Z,18.18
2016-12-26T03:01:45.815Z,18.28
2016-12-26T03:02:26.340Z,18.22
2016-12-26T03:03:06.874Z,18.22
2016-12-26T03:03:47.409Z,18.29
2016-12-26T03:04:27.943Z,18.31
2016-12-26T03:05:08.467Z,18.31
2016-12-26T03:05:49.000Z,18.23
2016-12-26T03:06:29.542Z,18.23
2016-12-26T03:07:10.063Z,18.15
2016-12-26T03:07:50.632Z,18.16
2016-12-26T03:08:31.193Z,18.16
2016-12-26T03:09:11.764Z,18.16
2016-12-26T03:09:52.342Z,18.18
2016-12-26T03:10:32.926Z,18.2
2016-12-26T03:11:13.510Z,18.16
2016-12-26T03:11:54.091Z,18.26
2016-12-26T03:12:34.668Z,18.28
2016-12-26T03:13:15.235Z,18.19
2016-12-26T03:13:55.824Z,18.26
2016-12-26T03:14:36.390Z,18.25
2016-12-26T03:15:16.960Z,18.26
2016-12-26T03:15:57.527Z,18.29
2016-12-26T03:16:38.096Z,18.29
2016-12-26T03:17:18.664Z,18.25
2016-12-26T03:17:59.239Z,18.23
2016-12-26T03:18:39.814Z,18.23
2016-12-26T03:19:20.389Z,18.23
2016-12-26T03:20:00.965Z,18.25
2016-12-26T03:20:41.543Z,18.28
2016-12-26T03:21:22.121Z,18.25
2016-12-26T03:22:02.696Z,18.31
2016-12-26T03:22:43.271Z,18.25
2016-12-26T03:23:23.855Z,18.25
2016-12-26T03:24:04.429Z,18.23
2016-12-26T03:24:45.010Z,18.28
2016-12-26T03:25:25.593Z,18.28
2016-12-26T03:26:06.170Z,18.25
2016-12-26T03:26:46.748Z,18.28
2016-12-26T03:27:27.335Z,18.23
2016-12-26T03:28:07.910Z,18.26
2016-12-26T03:28:48.487Z,18.23
2016-12-26T03:29:29.067Z,18.26
2016-12-26T03:30:09.645Z,18.25
2016-12-26T03:30:50.230Z,18.15
2016-12-26T03:31:30.810Z,18.23
2016-12-26T03:32:11.336Z,18.28
2016-12-26T03:32:51.863Z,18.26
2016-12-26T03:33:32.390Z,18.29
2016-12-26T03:34:12.926Z,18.25
2016-12-26T03:34:53.455Z,18.28
2016-12-26T03:35:33.987Z,18.33
2016-12-26T03:36:14.510Z,18.29
2016-12-26T03:36:55.053Z,18.29
2016-12-26T03:37:35.581Z,18.35
2016-12-26T03:38:16.118Z,18.16
2016-12-26T03:38:56.646Z,18.19
2016-12-26T03:39:37.175Z,18.18
2016-12-26T03:40:17.697Z,18.2
2016-12-26T03:40:58.231Z,18.15
2016-12-26T03:41:38.759Z,18.13
2016-12-26T03:42:19.289Z,18.15
2016-12-26T03:42:59.827Z,18.15
2016-12-26T03:43:40.411Z,18.31
2016-12-26T03:44:20.984Z,18.28
2016-12-26T03:45:01.540Z,18.16
2016-12-26T03:45:42.127Z,18.2
2016-12-26T03:46:22.703Z,18.18
2016-12-26T03:47:03.284Z,18.16
2016-12-26T03:47:43.866Z,18.26
2016-12-26T03:48:24.444Z,18.26
2016-12-26T03:49:05.019Z,18.22
2016-12-26T03:49:45.602Z,18.2
2016-12-26T03:50:26.180Z,18.26
2016-12-26T03:51:06.763Z,18.16
2016-12-26T03:51:47.332Z,18.15
2016-12-26T03:52:27.853Z,18.18
2016-12-26T03:53:08.388Z,18.18
2016-12-26T03:53:48.925Z,18.15
2016-12-26T03:54:29.505Z,18.13
2016-12-26T03:55:10.076Z,18.31
2016-12-26T03:55:50.655Z,18.18
2016-12-26T03:56:31.238Z,18.15
2016-12-26T03:57:11.817Z,18.2
2016-12-26T03:57:52.392Z,18.18
2016-12-26T03:58:32.973Z,18.22
2016-12-26T03:59:13.555Z,18.26
2016-12-26T03:59:54.133Z,18.18
2016-12-26T04:00:34.711Z,18.19
2016-12-26T04:01:15.277Z,18.18
2016-12-26T04:01:55.856Z,18.19
2016-12-26T04:02:36.426Z,18.28
2016-12-26T04:03:17.006Z,18.22
2016-12-26T04:03:57.587Z,18.15
2016-12-26T04:04:38.167Z,18.18
2016-12-26T04:05:18.750Z,18.18
2016-12-26T04:05:59.322Z,18.23
2016-12-26T04:06:39.896Z,18.15
2016-12-26T04:07:20.482Z,18.25
2016-12-26T04:08:01.055Z,18.15
2016-12-26T04:08:41.641Z,18.22
2016-12-26T04:09:22.217Z,18.04
2016-12-26T04:10:02.796Z,18.08
2016-12-26T04:10:43.372Z,18.13
2016-12-26T04:11:23.951Z,18.13
2016-12-26T04:12:04.529Z,18.08
2016-12-26T04:12:45.104Z,18.2
2016-12-26T04:13:25.688Z,18.05
2016-12-26T04:14:06.272Z,18.16
2016-12-26T04:14:46.849Z,18.23
2016-12-26T04:15:27.433Z,18.15
2016-12-26T04:16:08.010Z,18.18
2016-12-26T04:16:48.583Z,18.16
2016-12-26T04:17:29.162Z,18.23
2016-12-26T04:18:09.741Z,18.19
2016-12-26T04:18:50.314Z,18.07
2016-12-26T04:19:30.891Z,18.18
2016-12-26T04:20:11.459Z,18.18
2016-12-26T04:20:52.027Z,18.2
2016-12-26T04:21:32.605Z,18.13
2016-12-26T04:22:13.180Z,18.13
2016-12-26T04:22:53.758Z,18.19
2016-12-26T04:23:34.339Z,18.16
2016-12-26T04:24:14.913Z,18.16
2016-12-26T04:24:55.498Z,18.1
2016-12-26T04:25:36.058Z,18.22
2016-12-26T04:26:16.648Z,18.1
2016-12-26T04:26:57.229Z,18.03
2016-12-26T04:27:37.802Z,18.19
2016-12-26T04:28:18.380Z,18.1
2016-12-26T04:28:58.949Z,18.04
2016-12-26T04:29:39.531Z,18.13
2016-12-26T04:30:20.108Z,18
2016-12-26T04:31:00.683Z,18.04
2016-12-26T04:31:41.266Z,18.18
2016-12-26T04:32:21.844Z,18.1
2016-12-26T04:33:02.424Z,18.07
2016-12-26T04:33:43.004Z,18.03
2016-12-26T04:34:23.583Z,18.15
2016-12-26T04:35:04.163Z,18.03
2016-12-26T04:35:44.741Z,18.08
2016-12-26T04:36:25.318Z,18.03
2016-12-26T04:37:05.898Z,18.04
2016-12-26T04:37:46.471Z,18.07
2016-12-26T04:38:27.053Z,18.07
2016-12-26T04:39:07.625Z,18.03
2016-12-26T04:39:48.201Z,18.1
2016-12-26T04:40:28.778Z,18.03
2016-12-26T04:41:09.361Z,18.04
2016-12-26T04:41:49.943Z,18.13
2016-12-26T04:42:30.519Z,18.19
2016-12-26T04:43:11.098Z,18.18
2016-12-26T04:43:51.682Z,18.16
2016-12-26T04:44:32.266Z,18.01
2016-12-26T04:45:12.851Z,18.03
2016-12-26T04:45:53.429Z,18.01
2016-12-26T04:46:34.004Z,18.04
2016-12-26T04:47:14.589Z,18.03
2016-12-26T04:47:55.162Z,18.05
2016-12-26T04:48:35.741Z,18.15
2016-12-26T04:49:16.313Z,18.15
2016-12-26T04:49:56.843Z,18.18
2016-12-26T04:50:37.377Z,18.1
2016-12-26T04:51:17.900Z,18.2
2016-12-26T04:51:58.433Z,18.03
2016-12-26T04:52:38.964Z,18.07
2016-12-26T04:53:19.503Z,18.04
2016-12-26T04:54:00.031Z,18.04
2016-12-26T04:54:40.564Z,18.03
2016-12-26T04:55:21.083Z,18.05
2016-12-26T04:56:01.615Z,18.18
2016-12-26T04:56:42.153Z,18.13
2016-12-26T04:57:22.681Z,18.16
2016-12-26T04:58:03.202Z,18.01
2016-12-26T04:58:43.732Z,18.18
2016-12-26T04:59:24.264Z,18.1
2016-12-26T05:00:04.794Z,18.18
2016-12-26T05:00:45.324Z,18.22
2016-12-26T05:01:25.860Z,18.18
2016-12-26T05:02:06.389Z,18.18
2016-12-26T05:02:46.920Z,18.13
2016-12-26T05:03:27.449Z,18.11
2016-12-26T05:04:07.981Z,18.04
2016-12-26T05:04:48.514Z,18.05
2016-12-26T05:05:29.036Z,18.01
2016-12-26T05:06:09.573Z,18.04
2016-12-26T05:06:50.097Z,18.05
2016-12-26T05:07:30.658Z,18.11
2016-12-26T05:08:11.168Z,18.13
2016-12-26T05:08:51.707Z,18.03
2016-12-26T05:09:32.239Z,18.16
2016-12-26T05:10:12.766Z,18.13
2016-12-26T05:10:53.290Z,18.19
2016-12-26T05:11:33.813Z,18.22
2016-12-26T05:12:14.339Z,18.07
2016-12-26T05:12:54.874Z,18.05
2016-12-26T05:13:35.395Z,18.01
2016-12-26T05:14:15.926Z,18.03
2016-12-26T05:14:56.453Z,18.18
2016-12-26T05:15:36.983Z,18.19
2016-12-26T05:16:17.516Z,18.05
2016-12-26T05:16:58.035Z,18.11
2016-12-26T05:17:38.565Z,18.16
2016-12-26T05:18:19.091Z,18
2016-12-26T05:18:59.618Z,18.04
2016-12-26T05:19:40.153Z,18.13
2016-12-26T05:20:20.675Z,18.03
2016-12-26T05:21:01.213Z,18.04
2016-12-26T05:21:41.751Z,18.05
2016-12-26T05:22:22.278Z,18.01
2016-12-26T05:23:02.823Z,18
2016-12-26T05:23:43.352Z,18.04
2016-12-26T05:24:23.877Z,18.13
2016-12-26T05:25:04.406Z,18.13
2016-12-26T05:25:44.932Z,18.18
2016-12-26T05:26:25.461Z,18.16
2016-12-26T05:27:05.995Z,18.1
2016-12-26T05:27:46.525Z,18.1
2016-12-26T05:28:27.055Z,18.04
2016-12-26T05:29:07.579Z,18.19
2016-12-26T05:29:48.116Z,18.04
2016-12-26T05:30:28.641Z,18.11
2016-12-26T05:31:09.173Z,18.2
2016-12-26T05:31:49.706Z,18
2016-12-26T05:32:30.231Z,18.13
2016-12-26T05:33:10.764Z,18.07
2016-12-26T05:33:51.299Z,18.16
2016-12-26T05:34:31.836Z,18.15
2016-12-26T05:35:12.362Z,18.05
2016-12-26T05:35:52.885Z,18.05
2016-12-26T05:36:33.411Z,18.01
2016-12-26T05:37:13.940Z,18.04
2016-12-26T05:37:54.465Z,18.05
2016-12-26T05:38:35.002Z,18.04
2016-12-26T05:39:15.537Z,18.05
2016-12-26T05:39:56.063Z,18.05
2016-12-26T05:40:36.590Z,18.05
2016-12-26T05:41:17.148Z,18.05
2016-12-26T05:41:57.679Z,18.07
2016-12-26T05:42:38.214Z,18.03
2016-12-26T05:43:18.733Z,18.1
2016-12-26T05:43:59.266Z,18
2016-12-26T05:44:39.795Z,18.04
2016-12-26T05:45:20.325Z,18.08
2016-12-26T05:46:00.855Z,18.15
2016-12-26T05:46:41.386Z,18.03
2016-12-26T05:47:21.928Z,17.97
2016-12-26T05:48:02.456Z,18.05
2016-12-26T05:48:42.990Z,18.05
2016-12-26T05:49:23.513Z,18.04
2016-12-26T05:50:04.046Z,18.07
2016-12-26T05:50:44.577Z,18.03
2016-12-26T05:51:25.159Z,18.05
2016-12-26T05:52:05.681Z,18.16
2016-12-26T05:52:46.215Z,18.01
2016-12-26T05:53:26.746Z,18.05
2016-12-26T05:54:07.271Z,18
2016-12-26T05:54:47.802Z,18
2016-12-26T05:55:28.329Z,18.03
2016-12-26T05:56:08.855Z,18.04
2016-12-26T05:56:49.391Z,18.16
2016-12-26T05:57:29.913Z,18.1
2016-12-26T05:58:10.446Z,18.26
2016-12-26T05:58:50.973Z,18.07
2016-12-26T05:59:31.510Z,18.07
2016-12-26T06:00:12.033Z,18.05
2016-12-26T06:00:52.564Z,18.01
2016-12-26T06:01:33.092Z,18.08
2016-12-26T06:02:13.631Z,18.18
2016-12-26T06:02:54.153Z,18.16
2016-12-26T06:03:34.674Z,18.1
2016-12-26T06:04:15.229Z,18.05
2016-12-26T06:04:55.757Z,18.03
2016-12-26T06:05:36.279Z,18.03
2016-12-26T06:06:16.802Z,18.03
2016-12-26T06:06:57.331Z,18.01
2016-12-26T06:07:37.862Z,18.01
2016-12-26T06:08:18.419Z,18.05
2016-12-26T06:08:58.939Z,18.01
2016-12-26T06:09:39.477Z,18.03
2016-12-26T06:10:20.012Z,18.07
2016-12-26T06:11:00.539Z,17.92
2016-12-26T06:11:41.064Z,17.97
2016-12-26T06:12:21.596Z,18.08
2016-12-26T06:13:02.124Z,18
2016-12-26T06:13:42.652Z,18.01
2016-12-26T06:14:23.181Z,18.04
2016-12-26T06:15:03.714Z,18.01
2016-12-26T06:15:44.248Z,18.03
2016-12-26T06:16:24.775Z,18.05
2016-12-26T06:17:05.303Z,18.16
2016-12-26T06:17:45.834Z,18.04
2016-12-26T06:18:26.369Z,18.03
2016-12-26T06:19:06.901Z,18.03
2016-12-26T06:19:47.426Z,18.16
2016-12-26T06:20:27.955Z,18.03
2016-12-26T06:21:08.485Z,18.04
2016-12-26T06:21:49.003Z,18.05
2016-12-26T06:22:29.533Z,18.05
2016-12-26T06:23:10.059Z,18.03
2016-12-26T06:23:50.594Z,17.94
2016-12-26T06:24:31.120Z,18.04
2016-12-26T06:25:11.650Z,18.01
2016-12-26T06:25:52.183Z,18.05
2016-12-26T06:26:32.710Z,18.01
2016-12-26T06:27:13.251Z,18.04
2016-12-26T06:27:53.786Z,18.03
2016-12-26T06:28:34.312Z,18.04
2016-12-26T06:29:14.851Z,18.04
2016-12-26T06:29:55.382Z,18.03
2016-12-26T06:30:35.912Z,18.13
2016-12-26T06:31:16.441Z,18.13
2016-12-26T06:31:56.965Z,18.07
2016-12-26T06:32:37.507Z,18.2
2016-12-26T06:33:18.034Z,18.04
2016-12-26T06:33:58.573Z,18.05
2016-12-26T06:34:39.114Z,18.07
2016-12-26T06:35:19.648Z,18.08
2016-12-26T06:36:00.192Z,18.03
2016-12-26T06:36:40.712Z,18.01
2016-12-26T06:37:21.262Z,18.05
2016-12-26T06:38:01.788Z,18.04
2016-12-26T06:38:42.318Z,18.1
2016-12-26T06:39:22.858Z,18.2
2016-12-26T06:40:03.389Z,18.23
2016-12-26T06:40:43.919Z,18.19
2016-12-26T06:41:24.454Z,18.2
2016-12-26T06:42:04.985Z,18.18
2016-12-26T06:42:45.511Z,18.11
2016-12-26T06:43:26.039Z,18.16
2016-12-26T06:44:06.580Z,18.16
2016-12-26T06:44:47.111Z,18.15
2016-12-26T06:45:27.636Z,18.13
2016-12-26T06:46:08.159Z,18.16
2016-12-26T06:46:48.698Z,18.25
2016-12-26T06:47:29.238Z,18.16
2016-12-26T06:48:09.763Z,18.13
2016-12-26T06:48:50.297Z,18.19
2016-12-26T06:49:30.823Z,18.05
2016-12-26T06:50:11.363Z,18.04
2016-12-26T06:50:51.888Z,18.01
2016-12-26T06:51:32.422Z,18.03
2016-12-26T06:52:12.968Z,18.04
2016-12-26T06:52:53.491Z,18.01
2016-12-26T06:53:34.023Z,18.04
2016-12-26T06:54:14.550Z,18.04
2016-12-26T06:54:55.072Z,18.04
2016-12-26T06:55:35.599Z,18.05
2016-12-26T06:56:16.124Z,18.01
2016-12-26T06:56:56.659Z,18.03
2016-12-26T06:57:37.194Z,18.04
2016-12-26T06:58:17.733Z,18.01
2016-12-26T06:58:58.254Z,18.01
2016-12-26T06:59:38.782Z,18.05
2016-12-26T07:00:19.315Z,18.05
2016-12-26T07:00:59.840Z,18.04
2016-12-26T07:01:40.376Z,18.13
2016-12-26T07:02:20.899Z,18.16
2016-12-26T07:03:01.436Z,18.04
2016-12-26T07:03:41.966Z,18.04
2016-12-26T07:04:22.497Z,18.07
2016-12-26T07:05:03.021Z,18
2016-12-26T07:05:43.560Z,18.13
2016-12-26T07:06:24.083Z,18.05
2016-12-26T07:07:04.616Z,18.03
2016-12-26T07:07:45.151Z,18
2016-12-26T07:08:25.672Z,18.05
2016-12-26T07:09:06.199Z,18.16
2016-12-26T07:09:46.727Z,18.11
2016-12-26T07:10:27.263Z,18.13
2016-12-26T07:11:07.794Z,18.13
2016-12-26T07:11:48.320Z,18.16
2016-12-26T07:12:28.848Z,18.19
2016-12-26T07:13:09.376Z,18.16
2016-12-26T07:13:49.905Z,18.15
2016-12-26T07:14:30.443Z,18.07
2016-12-26T07:15:10.985Z,18.04
2016-12-26T07:15:51.520Z,18.15
2016-12-26T07:16:32.042Z,18.13
2016-12-26T07:17:12.584Z,18.2
2016-12-26T07:17:53.120Z,18.11
2016-12-26T07:18:33.646Z,18.13
2016-12-26T07:19:14.185Z,18.18
2016-12-26T07:19:54.709Z,18.15
2016-12-26T07:20:35.283Z,18.13
2016-12-26T07:21:15.810Z,18.13
2016-12-26T07:21:56.340Z,18.18
2016-12-26T07:22:36.877Z,18.1
2016-12-26T07:23:17.400Z,18.07
2016-12-26T07:23:57.926Z,18.1
2016-12-26T07:24:38.464Z,18.25
2016-12-26T07:25:18.983Z,18.19
2016-12-26T07:25:59.507Z,18.03
2016-12-26T07:26:40.038Z,18.13
2016-12-26T07:27:20.564Z,18.04
2016-12-26T07:28:01.089Z,18.05
2016-12-26T07:28:41.626Z,17.98
2016-12-26T07:29:22.154Z,18.13
2016-12-26T07:30:02.686Z,18.11
2016-12-26T07:30:43.210Z,18.18
2016-12-26T07:31:23.741Z,18.19
2016-12-26T07:32:04.256Z,18.15
2016-12-26T07:32:44.792Z,18.11
2016-12-26T07:33:25.322Z,18.15
2016-12-26T07:34:05.852Z,18.18
2016-12-26T07:34:46.372Z,18.01
2016-12-26T07:35:26.907Z,18.01
2016-12-26T07:36:07.434Z,18.05
2016-12-26T07:36:47.959Z,18.18
2016-12-26T07:37:28.489Z,18.13
2016-12-26T07:38:09.023Z,18.23
2016-12-26T07:38:49.553Z,18.22
2016-12-26T07:39:30.124Z,18.13
2016-12-26T07:40:10.698Z,18.23
2016-12-26T07:40:51.274Z,18.18
2016-12-26T07:41:31.850Z,18.18
2016-12-26T07:42:12.424Z,18.22
2016-12-26T07:42:53.023Z,18.16
2016-12-26T07:43:33.618Z,18.13
2016-12-26T07:44:14.202Z,18.05
2016-12-26T07:44:54.769Z,18.03
2016-12-26T07:45:35.344Z,18.16
2016-12-26T07:46:15.920Z,18
2016-12-26T07:46:56.498Z,18.01
2016-12-26T07:47:37.072Z,18.15
2016-12-26T07:48:17.636Z,18.13
2016-12-26T07:48:58.199Z,18.08
2016-12-26T07:49:38.772Z,18.15
2016-12-26T07:50:19.348Z,18.22
2016-12-26T07:50:59.927Z,18.25
2016-12-26T07:51:40.506Z,18.16
2016-12-26T07:52:21.095Z,18.16
2016-12-26T07:53:01.667Z,18.13
2016-12-26T07:53:42.242Z,18.13
2016-12-26T07:54:22.822Z,18.16
2016-12-26T07:55:03.386Z,18.11
2016-12-26T07:55:43.956Z,18.19
2016-12-26T07:56:24.528Z,18.01
2016-12-26T07:57:05.089Z,18.19
2016-12-26T07:57:45.669Z,18.11
2016-12-26T07:58:26.239Z,18.04
2016-12-26T07:59:06.812Z,18.15
2016-12-26T07:59:47.323Z,18.18
2016-12-26T08:00:27.839Z,18.05
2016-12-26T08:01:08.373Z,18.16
2016-12-26T08:01:48.925Z,18.15
2016-12-26T08:02:29.450Z,18.16
2016-12-26T08:03:10.023Z,18.05
2016-12-26T08:03:50.581Z,18.07
2016-12-26T08:04:31.162Z,18.15
2016-12-26T08:05:11.760Z,18.03
2016-12-26T08:05:52.345Z,18.03
2016-12-26T08:06:32.918Z,18.05
2016-12-26T08:07:13.495Z,18.13
2016-12-26T08:07:54.075Z,18.18
2016-12-26T08:08:34.648Z,18.15
2016-12-26T08:09:15.224Z,18.13
2016-12-26T08:09:55.794Z,18.19
2016-12-26T08:10:36.366Z,18.01
2016-12-26T08:11:16.947Z,18.03
2016-12-26T08:11:57.516Z,18.1
2016-12-26T08:12:38.096Z,18.18
2016-12-26T08:13:18.669Z,18.2
2016-12-26T08:13:59.242Z,18.22
2016-12-26T08:14:39.832Z,18.2
2016-12-26T08:15:20.401Z,18.15
2016-12-26T08:16:00.964Z,18.16
2016-12-26T08:16:41.531Z,18.11
2016-12-26T08:17:22.114Z,18.07
2016-12-26T08:18:02.699Z,18.08
2016-12-26T08:18:43.267Z,18.1
2016-12-26T08:19:23.840Z,18.19
2016-12-26T08:20:04.408Z,18.22
2016-12-26T08:20:44.989Z,18.25
2016-12-26T08:21:25.571Z,18.16
2016-12-26T08:22:06.151Z,18.26
2016-12-26T08:22:46.731Z,18.19
2016-12-26T08:23:27.269Z,18.25
2016-12-26T08:24:07.781Z,18.13
2016-12-26T08:24:48.312Z,18.07
2016-12-26T08:25:28.844Z,18.16
2016-12-26T08:26:09.379Z,18.28
2016-12-26T08:26:49.900Z,18.16
2016-12-26T08:27:30.435Z,18.28
2016-12-26T08:28:10.963Z,18.2
2016-12-26T08:28:51.474Z,18.2
2016-12-26T08:29:32.005Z,18.13
2016-12-26T08:30:12.534Z,18.2
2016-12-26T08:30:53.062Z,18.16
2016-12-26T08:31:33.589Z,18.2
2016-12-26T08:32:14.140Z,18.07
2016-12-26T08:32:54.674Z,18.05
2016-12-26T08:33:35.194Z,18.04
2016-12-26T08:34:15.731Z,18.03
2016-12-26T08:34:56.265Z,17.92
2016-12-26T08:35:36.796Z,17.98
2016-12-26T08:36:17.351Z,18.07
2016-12-26T08:36:57.885Z,18.04
2016-12-26T08:37:38.414Z,18.05
2016-12-26T08:38:18.946Z,18.08
2016-12-26T08:38:59.499Z,18.1
2016-12-26T08:39:40.014Z,18.11
2016-12-26T08:40:20.557Z,18.03
2016-12-26T08:41:01.085Z,18.1
2016-12-26T08:41:41.664Z,18.04
2016-12-26T08:42:22.177Z,18.04
2016-12-26T08:43:02.745Z,18.11
2016-12-26T08:43:43.314Z,18.13
2016-12-26T08:44:23.881Z,18.16